x

8413320 - Bar Harbor, Me (atgm1) Weather Station

10:54 - Wed 1st Jul 2015 All times are EDT. -4 hours from GMT.

  • Wind
    5mph, 8mph gusts
  • Sea Temp 53°f
  • Ar Temp 53°f
  • Sea Pressure 1005.4mb
  • 8413320 - Bar Harbor, Me
  • 8413320 - Bar Harbor, Me

More Historic Weather Station data

Upgrade to MSW Pro to gain access to the past 30 days of data for over 8000 Wavebouys and Weather Stations around the globe.

Join Pro

Comparision Forecast

View Surf forecast
   
Qua 07/01 10:54 5 8 mph 1005.4mb 53f 53f
10:48 6
mph
1005.5mb 53f 53f
10:42 5 7 mph 1005.6mb 53f 53f
10:36 6 7 mph 1005.5mb 53f 53f
10:30 6 7 mph 1005.5mb 53f 53f
10:24 6 8 mph 1005.5mb 53f 53f
10:18 6 8 mph 1005.6mb 52f 53f
10:12 6
mph
1005.8mb 53f 54f
10:06 6 8 mph 1005.8mb 52f 54f
10:00 3 5 mph 1005.7mb 51f 54f
9:54 2 5 mph 1005.8mb 50f 54f
9:48 6 11 mph 1006mb 50f 54f
9:42 7 11 mph 1006mb 50f 54f
9:36 7 10 mph 1005.9mb 50f 54f
9:30 7 10 mph 1005.8mb 50f 54f
9:24 9 11 mph 1005.8mb 50f 54f
9:18 8 13 mph 1005.9mb 51f 54f
9:12 8 11 mph 1005.9mb 51f 55f
9:06 9 11 mph 1006mb 51f 55f
9:00 8 11 mph 1005.9mb 51f 55f
8:54 9 10 mph 1005.8mb 52f 54f
8:48 8 9 mph 1005.7mb 51f 55f
8:42 5 7 mph 1005.7mb 51f 55f
8:36 6 9 mph 1005.8mb 51f 55f
8:30 6 8 mph 1005.8mb 52f 55f
8:24 6 8 mph 1005.8mb 52f 55f
8:18 7 10 mph 1005.8mb 52f 55f
8:12 3 6 mph 1006mb 52f 55f
8:06 2 9 mph 1006mb 53f 55f
8:00 7 10 mph 1006mb 53f 55f
7:54 9 13 mph 1005.9mb 53f 54f
7:48 10 13 mph 1005.9mb 53f 54f
7:42 9 16 mph 1006.1mb 53f 55f
7:36 9 14 mph 1006.1mb 53f 54f
7:30 13 15 mph 1006.2mb 54f 55f
7:24 10 14 mph 1006.3mb 54f 55f
7:18 10 13 mph 1006.4mb 54f 55f
7:12 13 15 mph 1006.4mb 54f 54f
7:06 11 15 mph 1006.2mb 54f 54f
7:00 14 17 mph 1006.2mb 54f 55f
6:54 13 16 mph 1006.2mb 54f 55f
6:48 14 18 mph 1006.2mb 54f 55f
6:42 11 15 mph 1006.2mb 54f 55f
6:36 13 18 mph 1006.2mb 54f 55f
6:30 16 17 mph 1006.2mb 54f 55f
6:24 15 18 mph 1006.1mb 55f 55f
6:18 15 20 mph 1006.1mb 55f 55f
6:12 17 21 mph 1005.9mb 55f 56f
6:06 15 17 mph 1005.9mb 55f 55f
6:00 11 14 mph 1005.9mb 55f 58f
5:54 9 16 mph 1006mb 55f 58f
5:48 7 16 mph 1006.2mb 55f 58f
5:42 11 18 mph 1006.3mb 55f 58f
5:36 11 18 mph 1006.3mb 55f 58f
5:30 11 15 mph 1006.3mb 55f 58f
5:24 8 14 mph 1006.5mb 55f 57f
5:18 9 17 mph 1006.4mb 55f 57f
5:12 11 20 mph 1006.5mb 55f 57f
5:06 10 16 mph 1006.4mb 55f 57f
5:00 9 16 mph 1006.6mb 55f 57f
4:54 9 18 mph 1006.5mb 55f 57f
4:48 14 20 mph 1006.5mb 55f 57f
4:42 13 20 mph 1006.5mb 54f 57f
4:36 10 21 mph 1006.5mb 54f 57f
4:30 14 18 mph 1006.2mb 54f 57f
4:24 14 21 mph 1006.2mb 54f 57f
4:18 13 20 mph 1006.4mb 54f 57f
4:12 14 18 mph 1006.6mb 54f 57f
4:06 11 17 mph 1006.7mb 54f 57f
4:00 10 17 mph 1006.8mb 54f 57f
3:54 11 20 mph 1006.9mb 54f 56f
3:48 13 22 mph 1007mb 54f 56f
3:42 8 15 mph 1007.1mb 54f 55f
3:36 13 20 mph 1007.3mb 54f 55f
3:30 13 20 mph 1007.5mb 54f 55f
3:24 14 23 mph 1007.6mb 54f 55f
3:18 16 22 mph 1007.7mb 54f 55f
3:12 15 22 mph 1007.7mb 54f 55f
3:06 16 21 mph 1007.8mb 54f 55f
3:00 14 18 mph 1008mb 54f 55f
2:54 13 18 mph 1008.1mb 54f 55f
2:48 10 18 mph 1008mb 54f 55f
2:42 14 20 mph 1008.1mb 54f 55f
2:36 14 20 mph 1008.4mb 54f 56f
2:30 13 18 mph 1008.4mb 54f 56f
2:24 11 21 mph 1008.3mb 54f 55f
2:18 14 20 mph 1008.4mb 55f 55f
2:12 15 22 mph 1008.4mb 55f 55f
2:06 10 17 mph 1008.8mb 54f 55f
2:00 15 21 mph 1009.1mb 54f 55f
1:54 16 21 mph 1009.2mb 54f 55f
1:48 14 20 mph 1009.4mb 55f 56f
1:42 14 18 mph 1009.4mb 55f 56f
1:36 14 20 mph 1009.4mb 55f 55f
1:30 14 17 mph 1009.3mb 55f 55f
1:24 13 17 mph 1009.4mb 54f 55f
1:18 13 16 mph 1009.4mb 54f 55f
1:12 11 14 mph 1009.6mb 54f 55f
1:06 13 15 mph 1009.9mb 54f 55f
1:00 11 16 mph 1010.2mb 54f 55f
12:54 11 15 mph 1010.4mb 54f 55f
12:48 11 15 mph 1010.5mb 54f 55f
12:42 11 14 mph 1010.6mb 54f 55f
12:36 10 11 mph 1010.7mb 54f 55f
12:30 10 11 mph 1010.9mb 54f 55f
12:24 10 14 mph 1011mb 55f 56f
12:18 7 11 mph 1011.2mb 54f 56f
12:12 9 13 mph 1011.5mb 54f 56f
12:06 9 11 mph 1011.7mb 55f 56f
12:00 9 10 mph 1011.9mb 54f 57f
11:54 8 9 mph 1011.9mb 54f 57f
11:48 6 8 mph 1012.1mb 54f 57f
11:42 6 7 mph 1012.3mb 54f 56f
11:36 6 7 mph 1012.4mb 55f 56f
11:30 6 8 mph 1012.6mb 54f 56f
11:24 7 9 mph 1012.7mb 55f 55f
11:18 8 9 mph 1012.9mb 55f 55f
11:12 8
mph
1013.1mb 55f 55f
11:06 7 8 mph 1013mb 55f 55f
11:00 6 8 mph 1013mb 55f 55f
10:54 8 9 mph 1013.1mb 55f 55f
10:48 9 11 mph 1013mb 55f 55f
10:42 9 10 mph 1012.8mb 55f 55f
10:36 8 9 mph 1012.8mb 55f 55f
10:30 7 9 mph 1012.9mb 55f 55f
10:24 8 11 mph 1012.8mb 55f 55f
10:18 10 11 mph 1012.8mb 54f 55f
10:12 9 11 mph 1012.7mb 55f 55f
10:06 10 11 mph 1012.8mb 54f 55f
10:00 9 13 mph 1012.8mb 54f 55f
9:54 9 13 mph 1012.8mb 54f 55f
9:48 9 11 mph 1012.7mb 53f 55f
9:42 10 13 mph 1012.6mb 53f 54f
9:36 9 13 mph 1012.7mb 54f 55f
9:30 9 11 mph 1012.6mb 53f 54f
9:24 9 11 mph 1012.8mb 53f 55f
9:18 10 13 mph 1012.7mb 54f 55f
9:12 9 13 mph 1012.6mb 53f 55f
9:06 10 14 mph 1012.8mb 54f 55f
9:00 11 16 mph 1012.7mb 55f 54f
8:54 14 16 mph 1012.7mb 55f 54f
8:48 13 16 mph 1012.7mb 55f 54f
8:42 11 15 mph 1012.8mb 55f 54f
8:36 10 16 mph 1013mb 55f 54f
8:30 14 17 mph 1012.9mb 55f 54f
8:24 13 16 mph 1012.7mb 55f 53f
8:18 10 14 mph 1012.8mb 55f 53f
8:12 11 15 mph 1012.9mb 55f 54f
8:06 10 15 mph 1012.9mb 55f 54f
8:00 11 15 mph 1013mb 55f 54f
7:54 11 14 mph 1013.1mb 54f 54f
7:48 11 13 mph 1012.9mb 54f 54f
7:42 13 14 mph 1012.9mb 55f 53f
7:36 10 13 mph 1012.9mb 55f 53f
7:30 9 11 mph 1012.8mb 54f 53f
7:24 10 11 mph 1012.7mb 55f 53f
7:18 8 11 mph 1012.8mb 55f 53f
7:12 7 10 mph 1012.9mb 55f 53f
7:06 6 9 mph 1012.9mb 55f 53f
7:00 5 9 mph 1012.9mb 55f 53f
6:54 5 9 mph 1012.9mb 55f 53f
6:48 5 9 mph 1013mb 55f 53f
6:42 8 10 mph 1013mb 55f 53f
6:36 7 10 mph 1013.1mb 55f 53f
6:30 7 9 mph 1013mb 55f 53f
6:24 3 5 mph 1013mb 55f 53f
6:18 5 7 mph 1013.1mb 55f 53f
6:12 6 9 mph 1013.3mb 55f 53f
6:06 5 9 mph 1013.3mb 55f 53f
6:00 7 10 mph 1013.4mb 55f 53f
5:54 6 11 mph 1013.4mb 55f 53f
5:48 8 10 mph 1013.5mb 55f 53f
5:42 6 9 mph 1013.3mb 55f 53f
5:36 7 11 mph 1013.3mb 55f 53f
5:30 6 9 mph 1013.4mb 55f 54f
5:24 7 10 mph 1013.3mb 55f 53f
5:18 8 10 mph 1013.3mb 55f 53f
5:12 6 10 mph 1013.4mb 55f 54f
5:06 8 10 mph 1013.4mb 55f 53f
5:00 5 8 mph 1013.5mb 55f 53f
4:54 6 8 mph 1013.5mb 55f 53f
4:48 3 5 mph 1013.6mb 55f 53f
4:42 2 3 mph 1013.5mb 55f 54f
4:36 2 5 mph 1013.5mb 55f 53f
4:30 5 6 mph 1013.5mb 55f 54f
4:24 5 6 mph 1013.6mb 55f 53f
4:18 3 5 mph 1013.6mb 55f 54f
4:12  -  1 mph 1013.6mb 55f 55f
4:06  -  2 mph 1013.6mb 55f 55f
4:00 1
mph
1013.5mb 55f 55f
3:54 2 5 mph 1013.6mb 55f 54f
3:48 3 5 mph 1013.6mb 55f 54f
3:42 3
mph
1013.7mb 55f 55f
3:36 3 5 mph 1013.7mb 55f 55f
3:30 2 3 mph 1013.8mb 55f 55f
3:24  -  1 mph 1014mb 55f 56f
3:18 1
mph
1014mb 55f 56f
3:12 1 2 mph 1014mb 55f 56f
3:06 1 2 mph 1014mb 55f 56f
3:00  -  mph 1013.9mb 55f 56f
2:54  -  1 mph 1014mb 55f 56f
2:48  -  mph - 55f 56f
2:42  -  mph - 55f 56f
2:36  -  mph - 55f 56f
2:30 1 2 mph 1014mb 55f 56f
2:24 2
mph
1014.1mb 55f 56f
2:18  -  3 mph 1014mb 55f 56f
2:12 3
mph
1014mb 55f 56f
2:06  -  mph 1014.1mb 55f 56f
2:00  -  2 mph 1014.1mb 55f 56f
1:54  -  1 mph 1014.2mb 55f 56f
1:48 1 2 mph 1014.4mb 55f 56f
1:42 2
mph
1014.3mb 55f 56f
1:36  -  1 mph 1014.4mb 55f 57f
1:30  -  1 mph 1014.4mb 55f 57f
1:24 1 5 mph 1014.4mb 55f 57f
1:18 3
mph
1014.2mb 54f 57f
1:12 1 2 mph 1014.3mb 55f 57f
1:06 1 2 mph 1014.4mb 55f 57f
1:00 1 2 mph 1014.6mb 55f 57f
12:54  -  3 mph 1014.7mb 54f 57f
12:48 2
mph
1014.8mb 54f 57f
12:42 2
mph
1014.7mb 54f 57f
12:36 1 2 mph 1014.7mb 54f 57f
12:30 2
mph
1014.7mb 54f 57f
12:24  -  3 mph 1014.8mb 54f 57f
12:18 3
mph
1014.8mb 54f 57f
12:12 2
mph
1014.7mb 54f 56f
12:06 3
mph
1014.8mb 54f 56f
12:00 2
mph
1014.9mb 54f 57f
Ter 06/30 11:54  -  mph 1014.7mb 53f 56f
11:48  -  1 mph 1014.6mb 54f 56f
11:42 1 2 mph 1014.7mb 54f 56f
11:36 1 2 mph 1014.8mb 54f 56f
11:30  -  1 mph 1014.9mb 54f 56f
11:24  -  2 mph 1014.8mb 54f 56f
11:18 1 2 mph 1014.7mb 54f 56f
11:12 2 3 mph 1014.9mb 53f 55f
11:06 1
mph
1014.9mb 54f 56f
11:00  -  3 mph 1014.8mb 53f 56f
10:54  -  5 mph 1014.9mb 53f 56f
10:48 2
mph
1014.9mb 53f 56f
10:42 1 2 mph 1014.9mb 53f 56f
10:36 1 3 mph 1014.7mb 53f 56f
10:30  -  1 mph 1014.8mb 53f 56f
10:24  -  2 mph 1014.7mb 53f 55f
10:18 1 3 mph 1014.7mb 54f 55f
10:12 1 5 mph 1014.6mb 56f 55f
10:06 1 5 mph 1014.6mb 56f 56f
10:00 3 5 mph 1014.6mb 57f 56f
9:54 3
mph
1014.6mb 57f 57f
9:48 2 3 mph 1014.6mb 56f 58f
9:42 2 3 mph 1014.5mb 56f 57f
9:36 3 6 mph 1014.5mb 56f 56f
9:30 6
mph
1014.5mb 56f 56f
9:24 2 5 mph 1014.4mb 56f 56f
9:18 1 3 mph 1014.2mb 55f 57f
9:12 3
mph
1014.2mb 53f 56f
9:06  -  2 mph 1014mb 52f 56f
9:00 2
mph
1013.9mb 52f 56f
8:54  -  2 mph 1013.8mb 52f 56f
8:48 3 5 mph 1013.8mb 52f 56f
8:42 3 7 mph 1013.8mb 52f 56f
8:36 6 7 mph 1013.7mb 52f 56f
8:30 2 5 mph 1013.5mb 51f 57f
8:24 2 6 mph 1013.5mb 51f 57f
8:18 6 7 mph 1013.6mb 51f 56f
8:12 3 5 mph 1013.7mb 51f 56f
8:06 3 5 mph 1013.7mb 52f 57f
8:00  -  7 mph 1013.8mb 52f 59f
7:54 6 7 mph 1013.9mb 52f 57f
7:48 6 7 mph 1013.7mb 52f 56f
7:42 6 7 mph 1013.6mb 52f 58f
7:36 3 5 mph 1013.7mb 53f 61f
7:00 1 2 mph 1013.8mb 53f 68f
6:54 1 5 mph 1013.7mb 53f 68f
6:48 2 6 mph 1013.8mb 53f 68f
6:42 6 7 mph 1013.8mb 53f 68f
6:36 3 5 mph 1013.8mb 53f 70f
6:30 5 7 mph 1013.7mb 54f 71f
6:24 2 5 mph 1013.7mb 54f 69f
6:18 2 6 mph 1013.7mb 54f 67f
6:12 3 6 mph 1013.7mb 54f 66f
6:06 2 7 mph 1013.7mb 55f 66f
6:00 2 8 mph 1013.6mb 55f 71f
5:54 2 8 mph 1013.6mb 55f 73f
5:48 3 7 mph 1013.6mb 56f 73f
5:42 3 9 mph 1013.5mb 56f 73f
5:36 5 8 mph 1013.5mb 56f 73f
5:30 3 6 mph 1013.5mb 56f 73f
5:24 3 9 mph 1013.5mb 57f 73f
5:18  -  9 mph 1013.6mb 57f 73f
5:12 5 9 mph 1013.6mb 57f 73f
5:06 7 9 mph 1013.5mb 57f 73f
5:00 6 8 mph 1013.5mb 57f 73f
4:54 5 7 mph 1013.5mb 57f 73f
4:48 5 10 mph 1013.6mb 57f 74f
4:42 6 10 mph 1013.6mb 57f 73f
4:36 5 9 mph 1013.6mb 57f 74f
4:30 8 13 mph 1013.6mb 57f 73f
4:24 3 11 mph 1013.7mb 57f 73f
4:18 10 14 mph 1013.7mb 57f 73f
4:12 6 11 mph 1013.6mb 57f 73f
4:06 8 13 mph 1013.7mb 57f 73f
4:00 10 16 mph 1013.7mb 57f 73f
3:54 9 14 mph 1013.7mb 56f 73f
3:48 7 10 mph 1013.7mb 56f 74f
3:42 5 9 mph 1013.7mb 56f 74f
3:36 8 11 mph 1013.7mb 56f 73f
3:30 6 9 mph 1013.7mb 56f 73f
3:24 3 11 mph 1013.8mb 56f 72f
3:18 3 10 mph 1013.8mb 56f 73f
3:12 3 15 mph 1013.9mb 56f 68f
3:06 8 14 mph 1013.9mb 56f 61f
3:00 8 16 mph 1013.9mb 56f 64f
2:54 14 16 mph 1014mb 56f 58f
2:48 11 14 mph 1014mb 56f 60f
2:42 11 16 mph 1014mb 56f 58f
2:36 14 16 mph 1014.1mb 56f 58f
2:30 14 16 mph 1014mb 56f 57f
2:24 14 16 mph 1014mb 56f 57f
2:18 15 17 mph 1014.1mb 56f 57f
2:12 14 17 mph 1014.2mb 56f 56f
2:06 15 16 mph 1014.2mb 56f 57f
2:00 14 15 mph 1014.2mb 56f 56f
1:54 14 15 mph 1014.1mb 55f 57f
1:48 14 16 mph 1014.1mb 56f 57f
1:42 14 16 mph 1014.2mb 55f 57f
1:36 13 15 mph 1014.2mb 55f 57f
1:30 13 15 mph 1014.2mb 55f 57f
1:24 15 16 mph 1014.2mb 55f 58f
1:18 14 15 mph 1014.3mb 56f 57f
1:12 13 15 mph 1014.3mb 55f 58f
1:06 11 15 mph 1014.2mb 55f 62f
1:00 10 14 mph 1014.2mb 55f 65f
12:54 10 13 mph 1014.3mb 55f 63f
12:48 9 13 mph 1014.4mb 55f 64f
12:42 7 11 mph 1014.4mb 55f 63f
12:36 9 14 mph 1014.5mb 55f 61f
12:30 10 13 mph 1014.6mb 55f 61f
12:24 10 13 mph 1014.6mb 55f 60f
12:18 10 11 mph 1014.6mb 55f 61f
12:12 9 11 mph 1014.6mb 55f 61f
12:06 10 11 mph 1014.6mb 55f 60f
12:00 10
mph
1014.7mb 55f 58f
11:54 9 11 mph 1014.7mb 54f 57f
11:48 9 13 mph 1014.8mb 54f 60f
11:42 10 14 mph 1014.6mb 54f 61f
11:36 9 11 mph 1014.6mb 55f 61f
11:30 9 10 mph 1014.6mb 55f 62f
11:24 9 10 mph 1014.6mb 55f 62f
11:18 8 10 mph 1014.6mb 54f 62f
11:12 7 9 mph 1014.7mb 54f 62f
11:06 8 10 mph 1014.7mb 54f 61f
11:00 9 10 mph 1014.8mb 54f 61f
10:54 8 9 mph 1014.7mb 53f 61f
10:48 8 10 mph 1014.8mb 53f 61f
10:42 7 9 mph 1014.7mb 53f 62f
10:36 7 8 mph 1014.7mb 53f 59f
10:30 8 9 mph 1014.7mb 53f 58f
10:24 7 8 mph 1014.7mb 53f 57f
10:18 8 9 mph 1014.7mb 53f 58f
10:12 6 8 mph 1014.7mb 54f 59f
10:06 6 8 mph 1014.8mb 54f 60f
10:00 6 8 mph 1014.9mb 55f 60f
9:54 8 9 mph 1014.9mb 55f 59f
9:48 7 8 mph 1014.9mb 55f 59f
9:42 6
mph
1014.9mb 55f 59f
9:36 5 6 mph 1014.8mb 55f 58f
9:30 2 3 mph 1014.9mb 54f 60f
9:24  -  2 mph 1014.8mb 55f 60f
9:18  -  1 mph 1014.8mb 55f 60f
9:12  -  1 mph 1014.8mb 54f 59f
9:06 1
mph
1014.8mb 54f 59f
9:00  -  1 mph 1014.8mb 53f 59f
8:54 1 2 mph 1014.7mb 53f 57f
8:48 1
mph
1014.6mb 53f 58f
8:42  -  1 mph 1014.6mb 52f 58f
8:36 1
mph
1014.5mb 52f 57f
8:30 1 2 mph 1014.4mb 53f 56f
8:24 2 3 mph 1014.4mb 53f 56f
8:18 2 5 mph 1014.3mb 52f 55f
8:12 3 5 mph 1014.3mb 52f 56f
8:06 5
mph
1014.2mb 52f 55f
8:00 5 6 mph 1014.1mb 52f 54f
7:54 6
mph
1014mb 52f 54f
7:48 3 6 mph 1014mb 52f 55f
7:42 5 6 mph 1013.9mb 53f 55f
7:36 6
mph
1013.9mb 53f 55f
7:30 3 7 mph 1013.8mb 53f 55f
7:24 6 7 mph 1013.8mb 53f 53f
7:18 3 5 mph 1013.9mb 52f 53f
7:12 5 6 mph 1013.8mb 52f 53f
7:06 6
mph
1013.7mb 52f 53f
7:00 2 6 mph 1013.8mb 52f 54f
6:54 3 5 mph 1013.7mb 52f 54f
6:48 5 6 mph 1013.6mb 53f 54f
6:42 2 5 mph 1013.5mb 53f 54f
6:36 5 7 mph 1013.6mb 53f 54f
6:30 6 7 mph 1013.5mb 53f 54f
6:24 5 6 mph 1013.4mb 53f 54f
6:18  -  2 mph 1013.5mb 53f 55f
6:12 1 5 mph 1013.5mb 53f 55f
6:06 3 5 mph 1013.4mb 54f 55f
6:00 3 6 mph 1013.4mb 54f 55f
5:54 3 5 mph 1013.4mb 54f 55f
5:48 2 5 mph 1013.4mb 54f 56f
5:42 3 5 mph 1013.4mb 54f 56f
5:36 5 6 mph 1013.4mb 54f 55f
5:30 3 5 mph 1013.3mb 54f 56f
5:24 2 3 mph 1013.2mb 54f 56f
5:18 3
mph
1013.1mb 54f 55f
5:12 1 2 mph 1013.2mb 54f 56f
5:06 1 2 mph 1013.1mb 54f 57f
5:00  -  3 mph 1013.2mb 54f 57f
4:54 2 6 mph 1013.1mb 55f 57f
4:48 3 6 mph 1013mb 55f 57f
4:42 2 3 mph 1013mb 54f 56f
4:36 1 2 mph 1013mb 54f 56f
4:30 2
mph
1013mb 55f 56f
4:24  -  2 mph 1013mb 55f 56f
4:18 1 2 mph 1012.9mb 55f 56f
4:12 1
mph
1013mb 55f 56f
4:06 1 2 mph 1012.9mb 55f 56f
4:00 2 5 mph 1012.9mb 55f 57f
3:54 1 2 mph 1012.8mb 55f 57f
3:48  -  2 mph 1012.8mb 55f 57f
3:42 1
mph
1012.8mb 54f 57f
3:36  -  2 mph 1012.6mb 55f 57f
3:30  -  2 mph 1012.6mb 55f 57f
3:24 1 3 mph 1012.4mb 55f 57f
3:18  -  2 mph 1012.4mb 55f 57f
3:12 2
mph
1012.3mb 55f 57f
3:06  -  1 mph 1012.3mb 55f 57f
3:00 2 5 mph 1012.2mb 55f 56f
2:54 3
mph
1012.2mb 54f 56f
2:48 2
mph
- 54f -
2:42  -  1 mph - 54f -
2:36  -  2 mph - 54f -
2:30 1 2 mph 1012.4mb 54f 57f
2:24 2 5 mph 1012.4mb 54f 57f
2:18 3 6 mph 1012.4mb 54f 56f
2:12 1 5 mph 1012.3mb 54f 56f
2:06 2 7 mph 1012.3mb 55f 57f
2:00  -  5 mph 1012.3mb 55f 57f
1:54  -  2 mph 1012.3mb 55f 57f
1:48 1 6 mph 1012.3mb 55f 57f
1:42 3 5 mph 1012.2mb 55f 56f
1:36 2 6 mph 1012.1mb 55f 56f
1:30 3 7 mph 1012mb 55f 56f
1:24 5 6 mph 1012mb 55f 56f
1:18 2 3 mph 1012.1mb 55f 56f
1:12 3 6 mph 1012mb 55f 55f
1:06 2 6 mph 1012mb 54f 55f
1:00 6 8 mph 1012mb 54f 56f
12:54 5 8 mph 1011.9mb 54f 56f
12:48 5 7 mph 1011.9mb 54f 56f
12:42 7 9 mph 1011.9mb 53f 56f
12:36 6 8 mph 1011.9mb 53f 57f
12:30 2 3 mph 1011.7mb 53f 59f
12:24  -  5 mph 1011.6mb 53f 59f
12:18 2 6 mph 1011.6mb 53f 58f
12:12 2 7 mph 1011.6mb 53f 61f
12:06 3 7 mph 1011.6mb 53f 62f
12:00 5 10 mph 1011.7mb 53f 62f
Seg 06/29 11:54 8 11 mph 1011.6mb 53f 62f
11:48 10 15 mph 1011.5mb 53f 61f
11:42 10 16 mph 1011.5mb 53f 61f
11:36 10 16 mph 1011.4mb 53f 61f
11:30 10 17 mph 1011.4mb 53f 61f
11:24 10 16 mph 1011.4mb 53f 61f
11:18 10 14 mph 1011.4mb 53f 60f
11:12 8 15 mph 1011.4mb 53f 60f
11:06 10 16 mph 1011.3mb 53f 60f
11:00 8 13 mph 1011.2mb 53f 60f
10:54 8 14 mph 1011.2mb 53f 60f
10:48 9 14 mph 1011.2mb 53f 60f
10:42 6 10 mph 1011.2mb 53f 60f
10:36 2 5 mph 1011.3mb 53f 58f
10:30 3 5 mph 1011.4mb 53f 55f
10:24 1 5 mph 1011.4mb 53f 55f
10:18 3 6 mph 1011.3mb 53f 55f
10:12 6 7 mph 1011.3mb 53f 55f
10:06 6 7 mph 1011.3mb 53f 54f
10:00 5
mph
1011.3mb 53f 55f
9:54 2 6 mph 1011.2mb 53f 55f
9:48 5 6 mph 1011.1mb 53f 55f
9:42 5 6 mph 1011mb 53f 55f
9:36 5 6 mph 1011mb 52f 55f
9:30 3 5 mph 1011mb 52f 55f
9:24 3 5 mph 1010.9mb 52f 56f
9:18 2 3 mph 1010.9mb 53f 56f
9:12 2 5 mph 1010.9mb 52f 57f
9:06 3 5 mph 1010.8mb 53f 56f
9:00 3
mph
1010.8mb 53f 56f
8:54 2 3 mph 1010.8mb 52f 55f
8:48 1 3 mph 1010.7mb 52f 56f
8:42 1 5 mph 1010.7mb 52f 56f
8:36 2 3 mph 1010.6mb 52f 56f
8:30 1 2 mph 1010.5mb 52f 57f
8:24 2
mph
1010.4mb 52f 57f
8:18 2 3 mph 1010.4mb 52f 58f
8:12 3 5 mph 1010.4mb 52f 58f
8:06 2 3 mph 1010.3mb 52f 59f
8:00 2 5 mph 1010.3mb 52f 57f
7:54 3 7 mph 1010.1mb 52f 60f
7:48 6 9 mph 1010mb 52f 60f
7:42 5 7 mph 1010mb 52f 61f
7:36 6 7 mph 1009.9mb 52f 61f
7:30 6 9 mph 1010mb 52f 62f
7:24 5 6 mph 1009.9mb 52f 62f
7:18  -  6 mph 1009.9mb 52f 63f
7:12 6 7 mph 1009.8mb 52f 61f
7:06  -  2 mph 1009.7mb 52f 65f
7:00 1 3 mph 1009.6mb 52f 65f
6:54 2 5 mph 1009.6mb 52f 65f
6:48 3 6 mph 1009.5mb 52f 65f
6:42  -  2 mph 1009.4mb 52f 64f
6:36 1 3 mph 1009.4mb 52f 63f
6:30 1 3 mph 1009.4mb 52f 64f
6:24 2 6 mph 1009.2mb 52f 64f
6:18  -  6 mph 1009.2mb 52f 66f
6:12  -  6 mph 1009.3mb 52f 64f
6:06 3 6 mph 1009.3mb 52f 63f
6:00 5 6 mph 1009.2mb 52f 62f
5:54 2 6 mph 1009.1mb 52f 63f
5:48 3 8 mph 1009.1mb 52f 62f
5:42 5 9 mph 1009.1mb 52f 61f
5:36 8 10 mph 1009mb 52f 60f
5:30 7 8 mph 1009mb 52f 60f
5:24 7 9 mph 1009mb 52f 59f
5:18 8 9 mph 1009mb 52f 58f
5:12 3 6 mph 1009mb 52f 62f
5:06 5 7 mph 1008.9mb 52f 62f
5:00 6 7 mph 1008.9mb 52f 62f
4:54 5 8 mph 1008.9mb 52f 65f
4:48 7 10 mph 1008.9mb 53f 65f
4:42 6 11 mph 1008.9mb 53f 66f
4:36 8 13 mph 1008.8mb 53f 65f
4:30 7 11 mph 1008.9mb 53f 65f
4:24 9 15 mph 1008.8mb 53f 65f
4:18 9 13 mph 1009mb 53f 65f
4:12 10 14 mph 1008.9mb 53f 64f
4:06 8 11 mph 1008.9mb 53f 65f
4:00 7 13 mph 1008.9mb 53f 65f
3:54 7 11 mph 1008.9mb 52f 65f
3:48 9 14 mph 1009mb 52f 64f
3:42 7 15 mph 1009mb 52f 65f
3:36 5 15 mph 1009mb 52f 65f
3:30 3 14 mph 1009mb 52f 65f
3:24 6 10 mph 1009mb 52f 66f
3:18 8 11 mph 1009mb 52f 65f
3:12 7 14 mph 1008.9mb 52f 66f
3:06 6 15 mph 1008.8mb 51f 66f
3:00 8 14 mph 1008.7mb 52f 65f
2:54 9 14 mph 1008.6mb 52f 65f
2:48 9 14 mph 1008.7mb 52f 65f
2:42 10 18 mph 1008.6mb 52f 65f
2:36 6 14 mph 1008.6mb 52f 65f
2:30 6 14 mph 1008.6mb 52f 65f
2:24 6 13 mph 1008.6mb 52f 65f
2:18 7 11 mph 1008.6mb 52f 65f
2:12 8 11 mph 1008.5mb 52f 65f
2:06 6 13 mph 1008.6mb 52f 65f
2:00 9 11 mph 1008.6mb 52f 65f
1:54 7 10 mph 1008.5mb 52f 65f
1:48 5 11 mph 1008.6mb 52f 65f
1:42 8 11 mph 1008.6mb 52f 64f
1:36 6 13 mph 1008.5mb 52f 64f
1:30 9 14 mph 1008.5mb 52f 63f
1:24 8 13 mph 1008.5mb 52f 64f
1:18 7 11 mph 1008.5mb 52f 63f
1:12 7 14 mph 1008.5mb 52f 63f
1:06 7 15 mph 1008.5mb 52f 62f
1:00 9 13 mph 1008.5mb 52f 63f
12:54 7 11 mph 1008.4mb 52f 63f
12:48 7 13 mph 1008.4mb 51f 63f
12:42 6 13 mph 1008.4mb 52f 63f
12:36 8 10 mph 1008.3mb 52f 63f
12:30 9 13 mph 1008.3mb 52f 62f
12:24 14 18 mph 1008.2mb 52f 61f
12:18 14 16 mph 1008.1mb 52f 61f
12:12 13 15 mph 1008.1mb 53f 62f
12:06 9 14 mph 1008.2mb 52f 62f
12:00 8 13 mph 1008.2mb 52f 62f
11:54 7 13 mph 1008.1mb 52f 62f
11:48 9 13 mph 1007.9mb 52f 62f
11:42 10 14 mph 1007.9mb 52f 60f
11:36 10 14 mph 1007.9mb 52f 61f
11:30 8 14 mph 1008mb 53f 61f
11:24 9 11 mph 1007.9mb 52f 60f
11:18 6 9 mph 1007.8mb 52f 60f
11:12 8 13 mph 1007.8mb 52f 60f
11:06 14 18 mph 1007.7mb 52f 59f
11:00 9 14 mph 1007.7mb 52f 60f
10:54 13 16 mph 1007.6mb 51f 59f
10:48 11 14 mph 1007.5mb 51f 58f
10:42 13 18 mph 1007.6mb 51f 58f
10:36 10 17 mph 1007.5mb 51f 58f
10:30 14 18 mph 1007.5mb 51f 58f
10:24 16 20 mph 1007.4mb 51f 58f
10:18 15 20 mph 1007.4mb 51f 57f
10:12 14 20 mph 1007.4mb 51f 57f
10:06 10 16 mph 1007.5mb 51f 57f
10:00 13 16 mph 1007.4mb 51f 57f
9:54 8 15 mph 1007.4mb 51f 57f
9:48 10 15 mph 1007.4mb 51f 57f
9:42 9 13 mph 1007.4mb 51f 56f
9:36 7 14 mph 1007.4mb 51f 56f
9:30 8 15 mph 1007.3mb 51f 56f
9:24 10 17 mph 1007.3mb 51f 56f
9:18 14 20 mph 1007.2mb 51f 56f
9:12 14 18 mph 1007.1mb 51f 56f
9:06 13 16 mph 1007.1mb 51f 55f
9:00 13 18 mph 1007.2mb 51f 55f
8:54 9 15 mph 1007.1mb 51f 55f
8:48 11 17 mph 1007mb 51f 55f
8:42 10 17 mph 1006.9mb 51f 55f
8:36 9 17 mph 1006.9mb 51f 55f
8:30 9 15 mph 1006.8mb 51f 55f
8:24 11 16 mph 1006.7mb 51f 55f
8:18 11 16 mph 1006.5mb 51f 55f
8:12 11 16 mph 1006.5mb 51f 55f
8:06 10 17 mph 1006.5mb 51f 55f
8:00 9 14 mph 1006.5mb 51f 55f
7:54 9 14 mph 1006.4mb 51f 55f
7:48 10 13 mph 1006.3mb 51f 55f
7:42 9 13 mph 1006.4mb 50f 55f
7:36 9 13 mph 1006.2mb 51f 55f
7:30 8 15 mph 1006.2mb 50f 55f
7:24 10 14 mph 1006.1mb 50f 54f
7:18 10 14 mph 1006.1mb 50f 54f
7:12 10 14 mph 1006mb 50f 54f
7:06 9 13 mph 1005.9mb 50f 54f
7:00 9 13 mph 1005.8mb 50f 54f
6:54 9 11 mph 1005.8mb 51f 54f
6:48 8 13 mph 1005.8mb 51f 54f
6:42 8 11 mph 1005.7mb 51f 54f
6:36 9 13 mph 1005.6mb 51f 54f
6:30 8 11 mph 1005.5mb 51f 54f
6:24 7 10 mph 1005.4mb 51f 54f
6:18 8 10 mph 1005.5mb 51f 54f
6:12 9 11 mph 1005.4mb 51f 54f
6:06 10 14 mph 1005.3mb 51f 53f
6:00 10 13 mph 1005.2mb 51f 53f
5:54 9 11 mph 1005.2mb 51f 53f
5:48 9 13 mph 1004.9mb 51f 53f
5:42 9 10 mph 1004.8mb 51f 53f
5:36 8 10 mph 1004.7mb 51f 53f
5:30 9 10 mph 1004.6mb 52f 53f
5:24 8 10 mph 1004.5mb 51f 53f
5:18 8 9 mph 1004.5mb 51f 53f
5:12 9 10 mph 1004.4mb 52f 53f
5:06 9 11 mph 1004.5mb 52f 53f
5:00 10
mph
1004.4mb 52f 53f
4:54 8 10 mph 1004.3mb 52f 53f
4:48 9 10 mph 1004.3mb 52f 53f
4:42 9 11 mph 1004.2mb 52f 53f
4:36 10 11 mph 1004.1mb 52f 53f
4:30 9 13 mph 1004mb 52f 53f
4:24 10 13 mph 1004.1mb 52f 53f
4:18 11 14 mph 1004.1mb 52f 53f
4:12 10 13 mph 1004mb 52f 53f
4:06 10 11 mph 1003.9mb 52f 53f
4:00 10 11 mph 1003.7mb 52f 53f
3:54 10 11 mph 1003.6mb 52f 53f
3:48 9 11 mph 1003.5mb 52f 53f
3:42 9 11 mph 1003.5mb 52f 53f
3:36 9 11 mph 1003.4mb 52f 53f
3:30 9 10 mph 1003.4mb 52f 53f
3:24 8 9 mph 1003.4mb 52f 53f
3:18 6 7 mph 1003.3mb 52f 53f
3:12 7
mph
1003.3mb 52f 53f
3:06 7 8 mph 1003.3mb 52f 53f
3:00 7
mph
1003.4mb 52f 53f
2:54 5 7 mph 1003.3mb 52f 53f
2:48 6 7 mph - - 53f
2:42 6 7 mph - - 53f
2:36 6 8 mph - - 53f
2:30 6 8 mph - 52f 52f
2:24 6 7 mph - 52f 52f
2:18 6
mph
- - -
2:12 3 5 mph - - -
2:06 3
mph
- - -
2:00 2 3 mph 1003.2mb 52f 52f
1:54 1 2 mph 1003.2mb 52f 53f
1:48  -  1 mph 1003.2mb 52f 53f
1:42 1 5 mph 1003.2mb 52f 53f
1:36 6 8 mph 1003.3mb 52f 53f
1:30 6 7 mph 1003.2mb 52f 53f
1:24 5 6 mph 1003.3mb 52f 53f
1:18 5 6 mph 1003.4mb 52f 53f
1:12 2 5 mph 1003.6mb 52f 52f
1:06 2 3 mph 1003.5mb 52f 52f
1:00 5 6 mph 1003.5mb 52f 52f
12:54 3 6 mph 1003.6mb 52f 52f
12:48 5 7 mph 1003.5mb 52f 52f
12:42 3 6 mph 1003.7mb 52f 52f
12:36 6 8 mph 1003.8mb 52f 53f
12:30 5 6 mph 1003.9mb 52f 52f
12:24 5 6 mph 1004.2mb 52f 53f
12:18 3 6 mph 1004.4mb 52f 52f
12:12 3 7 mph 1004.4mb 52f 52f
12:06 7 8 mph 1004.3mb 52f 53f
12:00 7 8 mph 1004.3mb 52f 52f
Dom 06/28 11:54 6 9 mph 1004.2mb 52f 52f
11:48 6 8 mph 1004.3mb 52f 52f
11:42 6 8 mph 1004.3mb 52f 52f
11:36 7 10 mph 1004.5mb 52f 52f
11:30 7 9 mph 1004.5mb 52f 52f
11:24 9 13 mph 1004.5mb 52f 52f
11:18 8 10 mph 1004.7mb 52f 52f
11:12 7 8 mph 1004.8mb 52f 52f
11:06 6 10 mph 1005mb 52f 52f
11:00 7 8 mph 1005.1mb 52f 52f
10:54 8 10 mph 1005.1mb 52f 52f
10:48 8 10 mph 1005.3mb 52f 52f
10:42 7 10 mph 1005.3mb 52f 52f
10:36 9 11 mph 1005.4mb 52f 52f
10:30 8 11 mph 1005.5mb 52f 52f
10:24 11 14 mph 1005.5mb 52f 52f
10:18 9 13 mph 1005.6mb 52f 52f
10:12 10 14 mph 1005.7mb 52f 52f
10:06 9 14 mph 1005.9mb 52f 52f
10:00 11 14 mph 1005.9mb 52f 52f
9:54 10 13 mph 1006.1mb 52f 52f
9:48 11 16 mph 1006.2mb 52f 52f
9:42 14 16 mph 1006.2mb 52f 52f
9:36 10 18 mph 1006.2mb 52f 52f
9:30 14 16 mph 1006.4mb 52f 52f
9:24 13 16 mph 1006.5mb 52f 52f
9:18 14 18 mph 1006.5mb 52f 52f
9:12 13 16 mph 1006.6mb 52f 51f
9:06 14 18 mph 1006.8mb 52f 51f
9:00 14 18 mph 1006.7mb 52f 51f
8:54 16 18 mph 1006.8mb 52f 52f
8:48 14 18 mph 1006.9mb 52f 51f
8:42 13 16 mph 1007mb 52f 51f
8:36 14 21 mph 1007mb 52f 51f
8:30 14 16 mph 1007.1mb 52f 51f
8:24 16 22 mph 1007.1mb 52f 52f
8:18 14 17 mph 1007.3mb 52f 52f
8:12 14 18 mph 1007.4mb 52f 51f
8:06 14 18 mph 1007.5mb 52f 52f
8:00 16 20 mph 1007.7mb 52f 52f
7:54 14 20 mph 1007.7mb 52f 51f
7:48 13 18 mph 1007.8mb 52f 51f
7:42 15 18 mph 1008mb 52f 51f
7:36 16 18 mph 1008mb 52f 51f
7:30 16 22 mph 1008mb 52f 51f
7:24 15 23 mph 1008.1mb 52f 51f
7:18 18 23 mph 1008.1mb 52f 51f
7:12 16 23 mph 1008.1mb 52f 51f
7:06 16 22 mph 1008.3mb 52f 51f
7:00 17 24 mph 1008.5mb 52f 51f
6:54 16 21 mph 1008.6mb 52f 51f
6:48 18 22 mph 1008.8mb 52f 51f
6:42 16 22 mph 1008.8mb 52f 51f
6:36 17 23 mph 1008.9mb 52f 51f
6:30 18 25 mph 1008.9mb 52f 51f
6:24 20 23 mph 1009mb 52f 51f
6:18 18 24 mph 1009.1mb 52f 50f
6:12 18 24 mph 1009.4mb 52f 50f
6:06 20 28 mph 1009.4mb 53f 50f
6:00 15 23 mph 1009.5mb 53f 50f
5:54 16 21 mph 1009.5mb 53f 50f
5:48 21 25 mph 1009.6mb 53f 50f
5:42 20 25 mph 1009.7mb 53f 50f
5:36 21 29 mph 1009.8mb 53f 50f
5:30 22 29 mph 1009.9mb 53f 50f
5:24 23 26 mph 1010mb 53f 50f
5:18 26 32 mph 1010.2mb 53f 50f
5:12 25 33 mph 1010.4mb 53f 50f
5:06 28 31 mph 1010.3mb 53f 50f
5:00 25 37 mph 1010.2mb 53f 50f
4:54 28 34 mph 1010.5mb 53f 51f
4:48 24 29 mph 1010.6mb 53f 51f
4:42 26 31 mph 1010.9mb 53f 50f
4:36 25 36 mph 1011.1mb 53f 50f
4:30 32 38 mph 1011.5mb 53f 50f
4:24 29 33 mph 1011.2mb 53f 50f
4:18 29 32 mph 1011.5mb 53f 50f
4:12 29 36 mph 1011.6mb 53f 50f
4:06 31 43 mph 1011.7mb 53f 50f
4:00 24 37 mph 1011.8mb 53f 50f
3:54 31 40 mph 1012mb 53f 50f
3:48 26 32 mph 1011.9mb 53f 50f
3:42 29 32 mph 1011.9mb 53f 50f
3:36 28 33 mph 1012mb 53f 51f
3:30 24 33 mph 1012.4mb 53f 50f
3:24 24 32 mph 1012.6mb 53f 50f
3:18 25 33 mph 1012.8mb 53f 50f
3:12 25 32 mph 1012.7mb 53f 50f
3:06 28 36 mph 1012.5mb 53f 50f
3:00 29 33 mph 1012.8mb 53f 50f
2:54 29 37 mph 1012.8mb 53f 50f
2:48 28 34 mph 1012.9mb 53f 50f
2:42 31 37 mph 1013mb 53f 51f
2:36 26 37 mph 1013mb 53f 51f
2:30 26 33 mph 1012.9mb 53f 51f
2:24 26 31 mph 1013mb 53f 51f
2:18 25 29 mph 1013.4mb 53f 51f
2:12 21 25 mph 1013.5mb 53f 51f
2:06 22 26 mph 1013.5mb 53f 51f
2:00 22 32 mph 1013.7mb 53f 51f
1:54 26 30 mph 1014.1mb 53f 51f
1:48 22 30 mph 1014.2mb 53f 51f
1:42 22 33 mph 1014mb 53f 51f
1:36 23 26 mph 1013.9mb 53f 51f
1:30 21 29 mph 1014.1mb 53f 51f
1:24 24 30 mph 1014.3mb 53f 51f
1:18 23 30 mph 1014.3mb 53f 51f
1:12 23 28 mph 1014.5mb 53f 51f
1:06 25 28 mph 1014.3mb 53f 51f
1:00 28 32 mph 1014.3mb 53f 51f
12:54 24 32 mph 1014.5mb 53f 51f
12:48 29 32 mph 1014.7mb 53f 51f
12:42 28 31 mph 1014.8mb 53f 51f
12:36 24 30 mph 1015.1mb 53f 52f
12:30 24 31 mph 1015.3mb 53f 52f
12:24 24 30 mph 1015.5mb 53f 52f
12:18 24 30 mph 1015.7mb 53f 53f
12:12 23 32 mph 1015.8mb 53f 53f
12:06 23 28 mph 1015.9mb 53f 54f
12:00 22 29 mph 1015.9mb 53f 54f
11:54 23 26 mph 1015.9mb 53f 54f
11:48 21 28 mph 1015.7mb 53f 54f
11:42 23 28 mph 1015.9mb 53f 54f
11:36 22 26 mph 1016.1mb 53f 54f
11:30 23 25 mph 1016.2mb 53f 55f
11:24 23 25 mph 1016.4mb 53f 55f
11:18 20 23 mph 1016.4mb 53f 55f
11:12 17 23 mph 1016.4mb 53f 54f
11:06 20 24 mph 1016.4mb 53f 54f
11:00 17 22 mph 1016.5mb 53f 54f
10:54 17 22 mph 1016.6mb 53f 54f
10:48 21 24 mph 1016.7mb 52f 54f
10:42 20 23 mph 1016.7mb 52f 54f
10:36 21 25 mph 1016.8mb 52f 55f
10:30 17 22 mph 1016.8mb 52f 55f
10:24 18 22 mph 1016.9mb 52f 55f
10:18 16 21 mph 1017mb 53f 55f
10:12 16 20 mph 1017mb 52f 55f
10:06 16 18 mph 1017.1mb 52f 55f
10:00 14 15 mph 1017.1mb 52f 54f
9:54 9 13 mph 1017.3mb 52f 54f
9:48 8 10 mph 1017.5mb 52f 55f
9:42 7 10 mph 1017.4mb 52f 54f
9:36 6 9 mph 1017.6mb 52f 54f
9:30 6 13 mph 1017.6mb 52f 54f
9:24 9 11 mph 1017.5mb 52f 54f
9:18 8 11 mph 1017.4mb 52f 54f
9:12 10 14 mph 1017.5mb 53f 54f
9:06 8 10 mph 1017.5mb 53f 54f
9:00 8 13 mph 1017.6mb 53f 54f
8:54 6 8 mph 1017.6mb 53f 54f
8:48 3 6 mph 1017.7mb 53f 53f
8:42 3 6 mph 1017.9mb 53f 53f
8:36 3 7 mph 1017.9mb 53f 53f
8:30 3 5 mph 1018mb 53f 53f
8:24 2 5 mph 1018.2mb 53f 53f
8:18 2 6 mph 1018.3mb 53f 54f
8:12 5 6 mph 1018.3mb 53f 54f
8:06 5 6 mph 1018.3mb 53f 54f
8:00 5 7 mph 1018.4mb 52f 54f
7:54 3 6 mph 1018.4mb 52f 54f
7:48 5 7 mph 1018.4mb 52f 54f
7:42 6 7 mph 1018.4mb 52f 54f
7:36 6 10 mph 1018.4mb 52f 54f
7:30 7 9 mph 1018.4mb 52f 54f
7:24 6 8 mph 1018.4mb 52f 54f
7:18 5 7 mph 1018.3mb 52f 54f
7:12 2 6 mph 1018.2mb 52f 54f
7:06 3 6 mph 1018.2mb 52f 54f
7:00 3 5 mph 1018.2mb 52f 54f
6:54 3 6 mph 1018.4mb 52f 54f
6:48 5 7 mph 1018.4mb 52f 54f
6:42 3 6 mph 1018.5mb 52f 54f
6:36 5 6 mph 1018.5mb 52f 54f
6:30 5 6 mph 1018.5mb 52f 54f
6:24 3 6 mph 1018.7mb 52f 54f
6:18 2 5 mph 1018.7mb 52f 54f
6:12 3 6 mph 1018.7mb 52f 54f
6:06 5 8 mph 1018.7mb 52f 54f
6:00 5 9 mph - - 54f
5:54 7 10 mph - - 54f
5:48  -  mph 1018.8mb 52f -
5:42  -  mph 1018.7mb 52f -
5:36  -  mph 1018.7mb 52f -
5:30  -  mph 1018.5mb 52f -
5:24  -  mph 1018.6mb 52f -
5:18  -  mph - - 54f
5:12  -  mph - - 54f
5:06  -  mph - - 54f
5:00 7 8 mph 1018.7mb 52f 54f
4:54 6 7 mph 1018.6mb 52f 54f
4:48 6 8 mph 1018.6mb 52f 55f
4:42 5 7 mph 1018.7mb 52f 55f
4:36 3 6 mph 1018.7mb 52f 55f
4:30 5 7 mph 1018.8mb 52f 55f
4:24 6 7 mph 1018.7mb 52f 55f
4:18 5 7 mph 1018.7mb 52f 55f
4:12 6 10 mph 1018.7mb 52f 55f
4:06 6 9 mph 1018.7mb 52f 55f
4:00 7 9 mph 1018.7mb 52f 55f
3:54 6 7 mph 1018.8mb 52f 54f
3:48 5 8 mph 1018.9mb 52f 54f
3:42 5 6 mph 1018.9mb 52f 54f